Time;durP1;ratioP1;P1;durP2;ratioP2;P2;SDS_P1;SDS_P2;PMS_P1;PMS_P2;Temp;Humidity;BMP_temperature;BMP_pressure;BME280_temperature;BME280_humidity;BME280_pressure;Samples;Min_cycle;Max_cycle;Signal;HPM_P1;HPM_P2
2022/10/14 00:00:41;;;;;;;50.58;31.88;;;;;;;17.06;63.77;101474.66;4949318;28;119429;-73
2022/10/14 00:03:08;;;;;;;48.83;31.40;;;;;;;17.05;63.77;101466.75;4966216;28;119076;-73
2022/10/14 00:05:39;;;;;;;48.35;31.98;;;;;;;17.05;64.08;101474.75;4948596;28;122867;-73
2022/10/14 00:08:08;;;;;;;49.22;30.38;;;;;;;17.05;63.95;101472.94;4962347;28;124086;-73
2022/10/14 00:10:37;;;;;;;40.03;28.73;;;;;;;17.05;64.02;101477.44;4966595;28;119290;-73
2022/10/14 00:13:05;;;;;;;42.08;28.85;;;;;;;17.04;64.27;101476.56;4948827;28;118168;-74
2022/10/14 00:15:37;;;;;;;48.60;30.20;;;;;;;17.04;64.15;101475.72;4947569;28;123283;-73
2022/10/14 00:18:05;;;;;;;50.20;29.58;;;;;;;17.05;63.99;101472.09;4963841;28;124514;-71
2022/10/14 00:20:33;;;;;;;49.63;30.33;;;;;;;17.04;64.23;101470.34;4964970;28;120510;-73
2022/10/14 00:23:00;;;;;;;52.75;30.08;;;;;;;17.04;64.20;101470.34;4948344;28;118346;-71
2022/10/14 00:25:28;;;;;;;47.03;29.77;;;;;;;17.04;64.21;101462.31;4963917;28;124773;-71
2022/10/14 00:27:55;;;;;;;51.53;29.60;;;;;;;17.05;64.17;101466.75;4966360;28;123784;-71
2022/10/14 00:30:22;;;;;;;47.83;28.70;;;;;;;17.05;64.41;101466.75;4947582;28;118818;-71
2022/10/14 00:32:49;;;;;;;43.20;27.75;;;;;;;17.07;64.34;101464.81;4967351;28;119287;-72
2022/10/14 00:35:16;;;;;;;48.92;29.27;;;;;;;17.07;64.27;101475.53;4965695;28;124635;-71
2022/10/14 00:37:43;;;;;;;45.17;27.92;;;;;;;17.07;64.24;101470.19;4966439;28;124064;-72
2022/10/14 00:40:11;;;;;;;46.88;27.92;;;;;;;17.08;64.38;101471.88;4965815;28;120291;-72
2022/10/14 00:42:38;;;;;;;48.05;28.40;;;;;;;17.08;64.34;101466.53;4947989;28;119438;-72
2022/10/14 00:45:12;;;;;;;45.50;28.25;;;;;;;17.09;64.27;101468.25;4947514;28;123013;-72
2022/10/14 00:47:40;;;;;;;45.10;27.20;;;;;;;17.11;64.18;101466.34;4965029;28;124548;-72
2022/10/14 00:50:09;;;;;;;45.83;27.52;;;;;;;17.12;64.27;101462.69;4965780;28;118507;-72
2022/10/14 00:52:36;;;;;;;44.63;27.98;;;;;;;17.12;64.23;101457.34;4947429;28;118579;-72
2022/10/14 00:55:09;;;;;;;43.00;27.83;;;;;;;17.14;64.38;101460.81;4947408;28;124355;-72
2022/10/14 00:57:37;;;;;;;44.05;27.27;;;;;;;17.14;64.25;101452.78;4948337;28;122718;-72
2022/10/14 01:00:14;;;;;;;39.50;26.70;;;;;;;17.14;64.36;101460.81;4964642;28;119601;-72
2022/10/14 01:02:41;;;;;;;44.25;26.25;;;;;;;17.14;64.35;101455.47;4934622;28;118314;-72
2022/10/14 01:05:12;;;;;;;37.00;26.33;;;;;;;17.14;63.83;101460.81;4962513;28;124431;-72
2022/10/14 01:07:58;;;;;;;45.90;27.83;;;;;;;17.13;64.19;101453.72;4965706;28;124092;-72
2022/10/14 01:10:40;;;;;;;42.10;26.75;;;;;;;17.13;64.25;101449.22;4964628;28;119096;-72
2022/10/14 01:13:44;;;;;;;39.97;25.17;;;;;;;17.12;64.16;101446.63;4964222;28;122249;-72
2022/10/14 01:16:24;;;;;;;37.30;26.27;;;;;;;17.12;64.10;101447.53;4916461;28;123357;-72
2022/10/14 01:19:01;;;;;;;38.78;25.42;;;;;;;17.11;64.28;101434.22;4962169;28;123219;-72
2022/10/14 01:21:51;;;;;;;34.97;24.50;;;;;;;17.09;64.13;101441.50;4948131;28;117555;-72
2022/10/14 01:24:41;;;;;;;33.60;24.45;;;;;;;17.08;64.09;101437.97;4961960;28;118934;-72
2022/10/14 01:27:37;;;;;;;34.35;24.02;;;;;;;17.07;64.10;101433.56;4939607;28;123756;-72
2022/10/14 01:30:17;;;;;;;36.95;24.75;;;;;;;17.08;64.20;101424.59;4908015;28;122514;-71
2022/10/14 01:32:57;;;;;;;35.13;24.13;;;;;;;17.07;64.17;101416.66;4964882;28;119459;-72
2022/10/14 01:35:43;;;;;;;35.35;23.35;;;;;;;17.07;64.26;101416.66;4963183;28;119823;-72
2022/10/14 01:38:29;;;;;;;40.15;24.33;;;;;;;17.04;64.13;101409.66;4964459;28;124510;-72
2022/10/14 01:41:24;;;;;;;36.40;22.40;;;;;;;17.03;64.01;101412.44;4962623;28;123882;-72
2022/10/14 01:43:55;;;;;;;32.95;22.85;;;;;;;17.02;64.15;101397.34;4961713;28;119432;-72
2022/10/14 01:46:25;;;;;;;36.55;22.98;;;;;;;17.03;64.43;101399.06;4963327;28;118932;-72
2022/10/14 01:48:59;;;;;;;33.08;22.13;;;;;;;17.02;64.08;101386.63;4962725;28;124065;-72
2022/10/14 01:51:31;;;;;;;36.15;23.02;;;;;;;17.03;64.26;101385.69;4965315;28;124840;-72
2022/10/14 01:54:03;;;;;;;34.17;22.50;;;;;;;17.02;64.19;101381.28;4947226;28;118723;-72
2022/10/14 01:56:32;;;;;;;33.28;22.42;;;;;;;17.02;64.21;101381.28;4947943;28;118926;-72
2022/10/14 01:59:09;;;;;;;33.65;22.65;;;;;;;17.01;64.11;101369.72;4964041;28;124317;-72
2022/10/14 02:01:36;;;;;;;35.40;23.00;;;;;;;17.00;64.05;101364.47;4947563;28;123812;-72
2022/10/14 02:04:16;;;;;;;40.00;23.83;;;;;;;16.99;64.50;101365.41;4950638;28;118952;-72
2022/10/14 02:06:57;;;;;;;32.13;22.58;;;;;;;16.98;64.14;101366.38;4965248;28;119083;-72
2022/10/14 02:09:35;;;;;;;33.97;22.40;;;;;;;16.98;64.32;101374.41;4948299;28;124540;-72
2022/10/14 02:12:22;;;;;;;35.08;22.42;;;;;;;16.98;64.26;101379.75;4965471;28;122790;-72
2022/10/14 02:14:53;;;;;;;31.23;22.30;;;;;;;16.97;63.98;101378.03;4967149;28;118465;-71
2022/10/14 02:17:29;;;;;;;32.05;21.60;;;;;;;16.96;64.34;101376.31;4968554;28;119623;-72
2022/10/14 02:20:03;;;;;;;30.80;21.95;;;;;;;16.95;64.35;101379.94;4964815;28;123962;-72
2022/10/14 02:22:44;;;;;;;30.13;21.77;;;;;;;16.92;64.14;101368.47;4950399;28;123993;-72
2022/10/14 02:25:19;;;;;;;32.05;21.65;;;;;;;16.90;64.20;101373.06;4952807;28;118637;-72
2022/10/14 02:27:48;;;;;;;30.70;21.45;;;;;;;16.91;64.32;101369.44;4967313;28;120127;-72
2022/10/14 02:30:16;;;;;;;30.65;21.52;;;;;;;16.92;64.40;101363.13;4966824;28;124138;-72
2022/10/14 02:32:45;;;;;;;31.45;21.67;;;;;;;16.92;64.39;101357.78;4968814;28;124643;-72
2022/10/14 02:35:16;;;;;;;30.23;21.67;;;;;;;16.93;64.21;101356.84;4968246;28;119597;-72
2022/10/14 02:37:47;;;;;;;29.83;20.88;;;;;;;16.94;64.36;101352.34;4966304;28;118254;-71
2022/10/14 02:40:22;;;;;;;33.38;22.10;;;;;;;16.93;64.50;101361.31;4950262;28;123260;-72
2022/10/14 02:42:49;;;;;;;39.33;22.02;;;;;;;16.93;64.32;101362.19;4950578;28;122453;-71
2022/10/14 02:45:17;;;;;;;27.27;20.27;;;;;;;16.90;64.43;101362.38;4948540;28;119465;-72
2022/10/14 02:47:45;;;;;;;29.90;21.80;;;;;;;16.92;64.26;101364.94;4949348;28;118229;-71
2022/10/14 02:50:13;;;;;;;30.70;21.75;;;;;;;16.93;64.32;101367.53;4965391;28;123790;-72
2022/10/14 02:52:40;;;;;;;33.85;21.08;;;;;;;16.95;64.36;101369.25;4949997;28;122815;-72
2022/10/14 02:55:07;;;;;;;31.70;20.98;;;;;;;16.96;64.30;101365.63;4949710;28;118222;-72
2022/10/14 02:57:34;;;;;;;29.70;20.80;;;;;;;16.95;64.32;101363.88;4965739;28;118273;-72
2022/10/14 03:00:04;;;;;;;28.25;20.73;;;;;;;16.95;64.35;101358.53;4949654;28;123782;-72
2022/10/14 03:02:33;;;;;;;32.13;21.65;;;;;;;16.97;64.46;101362.84;4953474;28;123989;-72
2022/10/14 03:05:02;;;;;;;32.13;20.77;;;;;;;16.98;64.47;101358.34;4952389;28;119053;-72
2022/10/14 03:07:29;;;;;;;33.15;20.88;;;;;;;16.98;64.49;101355.69;4946555;28;120027;-72
2022/10/14 03:10:01;;;;;;;38.55;21.00;;;;;;;17.01;64.46;101366.16;4933255;28;123266;-72
2022/10/14 03:12:30;;;;;;;33.50;20.52;;;;;;;17.01;64.37;101358.13;4946692;28;123355;-72
2022/10/14 03:14:59;;;;;;;31.23;21.17;;;;;;;17.00;64.39;101346.59;4946997;28;119871;-72
2022/10/14 03:17:26;;;;;;;32.35;20.98;;;;;;;17.01;64.37;101347.44;4966737;28;120867;-72
2022/10/14 03:19:58;;;;;;;36.83;21.67;;;;;;;17.00;64.38;101346.59;4950076;28;123487;-72
2022/10/14 03:22:25;;;;;;;32.40;20.60;;;;;;;17.00;64.39;101335.03;4949448;28;124376;-72
2022/10/14 03:24:54;;;;;;;31.80;20.52;;;;;;;16.98;64.25;101342.28;4949817;28;118148;-72
2022/10/14 03:27:29;;;;;;;28.08;19.58;;;;;;;16.95;64.22;101321.94;4949426;28;118782;-72
2022/10/14 03:30:00;;;;;;;38.67;20.67;;;;;;;16.96;64.46;101320.13;4947577;28;123374;-72
2022/10/14 03:32:28;;;;;;;31.85;20.17;;;;;;;16.93;64.37;101319.38;4946827;28;123036;-72
2022/10/14 03:35:23;;;;;;;32.25;19.75;;;;;;;16.91;64.47;101320.41;4967820;28;119835;-72
2022/10/14 03:37:54;;;;;;;33.17;21.58;;;;;;;16.92;64.39;101328.34;4928953;28;119250;-71
2022/10/14 03:40:28;;;;;;;33.45;20.38;;;;;;;16.91;64.64;101321.28;4949170;28;123259;-72
2022/10/14 03:42:59;;;;;;;34.80;20.08;;;;;;;16.90;64.52;101319.56;4949257;28;125245;-72
2022/10/14 03:45:34;;;;;;;32.22;20.42;;;;;;;16.91;64.69;101318.63;4943591;28;118947;-72
2022/10/14 03:48:02;;;;;;;32.15;21.08;;;;;;;16.90;64.58;101316.88;4947660;28;118173;-72
2022/10/14 03:50:30;;;;;;;31.00;20.73;;;;;;;16.88;64.54;101316.13;4949454;28;124369;-72
2022/10/14 03:52:57;;;;;;;31.95;19.65;;;;;;;16.88;64.48;101309.94;4947549;28;123011;-72
2022/10/14 03:55:31;;;;;;;33.88;20.42;;;;;;;16.84;64.65;101303.91;4944356;28;118830;-72
2022/10/14 03:57:58;;;;;;;29.90;19.80;;;;;;;16.85;64.78;101305.59;4949058;28;118259;-72
2022/10/14 04:00:26;;;;;;;32.38;20.73;;;;;;;16.85;64.87;101304.75;4948349;28;123559;-72
2022/10/14 04:03:07;;;;;;;35.38;20.92;;;;;;;16.86;64.87;101307.34;4934312;28;123700;-72
2022/10/14 04:05:38;;;;;;;33.88;21.20;;;;;;;16.87;64.69;101303.69;4970692;28;120733;-71
2022/10/14 04:08:13;;;;;;;30.83;20.00;;;;;;;16.87;64.80;101303.69;4947875;28;120164;-72
2022/10/14 04:10:53;;;;;;;33.13;20.63;;;;;;;16.86;64.73;101302.00;4967946;28;123133;-72
2022/10/14 04:13:21;;;;;;;34.17;21.33;;;;;;;16.87;64.86;101297.50;4963464;28;122431;-72
2022/10/14 04:15:48;;;;;;;32.10;20.63;;;;;;;16.88;64.98;101289.38;4971878;28;119119;-71
2022/10/14 04:18:20;;;;;;;32.60;21.33;;;;;;;16.88;64.86;101291.19;4952390;28;118787;-72
2022/10/14 04:20:49;;;;;;;34.00;21.67;;;;;;;16.87;65.01;101293.00;4948350;28;123450;-71
2022/10/14 04:23:20;;;;;;;30.08;20.83;;;;;;;16.87;64.90;101287.63;4948749;28;123179;-72
2022/10/14 04:25:52;;;;;;;33.72;21.50;;;;;;;16.87;65.12;101282.28;4948488;28;118785;-72
2022/10/14 04:28:20;;;;;;;30.13;20.67;;;;;;;16.88;64.90;101277.81;4947419;28;118509;-72
2022/10/14 04:30:55;;;;;;;32.38;21.52;;;;;;;16.88;64.89;101281.34;4946252;28;123782;-72
2022/10/14 04:33:27;;;;;;;34.38;21.48;;;;;;;16.88;64.96;101267.13;4946577;28;123775;-72
2022/10/14 04:36:04;;;;;;;31.98;20.92;;;;;;;16.87;65.02;101271.59;4948879;28;118751;-72
2022/10/14 04:38:35;;;;;;;32.45;21.83;;;;;;;16.87;65.22;101266.22;4933052;28;118311;-72
2022/10/14 04:41:06;;;;;;;31.52;22.05;;;;;;;16.87;65.08;101271.59;4947910;28;124080;-71
2022/10/14 04:43:34;;;;;;;35.45;21.90;;;;;;;16.89;65.13;101269.66;4945458;28;123171;-71
2022/10/14 04:46:16;;;;;;;34.35;21.77;;;;;;;16.90;65.24;101259.84;4948202;28;119454;-71
2022/10/14 04:48:46;;;;;;;34.38;21.38;;;;;;;16.90;65.15;101266.06;4948391;28;118362;-72
2022/10/14 04:51:14;;;;;;;34.75;22.08;;;;;;;16.91;65.13;101262.44;4946164;28;124726;-71
2022/10/14 04:53:49;;;;;;;32.53;20.80;;;;;;;16.90;65.20;101260.69;4945667;28;123251;-72
2022/10/14 04:56:37;;;;;;;34.58;22.33;;;;;;;16.89;65.25;101258.97;4946058;28;120237;-72
2022/10/14 04:59:04;;;;;;;36.78;23.00;;;;;;;16.90;65.38;101255.34;4948246;28;119539;-72
2022/10/14 05:01:51;;;;;;;36.63;21.85;;;;;;;16.90;65.59;101263.38;4945655;28;122186;-72
2022/10/14 05:04:19;;;;;;;37.95;23.20;;;;;;;16.91;65.40;101262.44;4948121;28;123044;-73
2022/10/14 05:06:48;;;;;;;38.08;23.50;;;;;;;16.95;65.38;101256.84;4932054;28;118420;-71
2022/10/14 05:09:17;;;;;;;39.63;24.27;;;;;;;16.96;65.35;101253.25;4947125;28;118460;-71
2022/10/14 05:11:45;;;;;;;43.28;25.23;;;;;;;16.97;65.40;101254.94;4930953;28;124139;-73
2022/10/14 05:14:15;;;;;;;38.58;24.40;;;;;;;16.97;65.59;101249.59;4947896;28;123002;-72
2022/10/14 05:16:46;;;;;;;44.45;25.38;;;;;;;16.98;65.48;101251.31;4948788;28;119596;-73
2022/10/14 05:19:13;;;;;;;35.35;24.02;;;;;;;17.00;65.46;101249.41;4959638;28;118027;-73
2022/10/14 05:21:48;;;;;;;39.70;24.65;;;;;;;17.00;65.30;101233.34;4947407;28;123409;-74
2022/10/14 05:24:23;;;;;;;;;;;;;;;16.98;65.05;101229.91;4948437;28;123668;-73
2022/10/14 05:26:50;;;;;;;37.67;23.05;;;;;;;17.00;65.08;101228.00;4963872;28;119505;-72
2022/10/14 05:29:18;;;;;;;39.10;24.27;;;;;;;16.99;65.37;101220.91;4947765;28;117249;-72
2022/10/14 05:31:48;;;;;;;39.45;25.05;;;;;;;16.99;65.53;101215.56;4929415;28;123300;-72
2022/10/14 05:34:30;;;;;;;40.42;24.17;;;;;;;17.00;65.45;101217.28;4966277;28;124588;-70
2022/10/14 05:36:58;;;;;;;39.45;23.75;;;;;;;17.02;65.50;101215.38;4945327;28;118353;-72
2022/10/14 05:39:30;;;;;;;33.83;21.85;;;;;;;17.03;65.99;101217.09;4951052;28;118536;-73
2022/10/14 05:41:57;;;;;;;46.45;24.50;;;;;;;17.04;65.57;101213.44;4950938;28;123680;-73
2022/10/14 05:44:27;;;;;;;44.70;24.77;;;;;;;17.05;65.67;101204.47;4951177;28;122805;-74
2022/10/14 05:46:54;;;;;;;40.03;24.85;;;;;;;17.04;65.61;101206.25;4930745;28;119367;-73
2022/10/14 05:49:23;;;;;;;38.35;24.00;;;;;;;17.05;65.59;101217.84;4950568;28;119577;-72
2022/10/14 05:51:52;;;;;;;38.20;24.75;;;;;;;17.05;65.56;101199.13;4949718;28;123192;-72
2022/10/14 05:54:22;;;;;;;39.55;24.45;;;;;;;17.05;65.63;101189.25;4965963;28;123149;-72
2022/10/14 05:56:51;;;;;;;40.75;24.75;;;;;;;17.05;65.84;101193.75;4948836;28;118289;-72
2022/10/14 05:59:19;;;;;;;37.92;23.65;;;;;;;17.07;65.70;101191.84;4949179;28;118748;-72
2022/10/14 06:01:46;;;;;;;36.63;22.52;;;;;;;17.08;65.89;101193.53;4949313;28;123046;-72
2022/10/14 06:04:18;;;;;;;32.72;22.83;;;;;;;17.06;65.88;101184.75;4965425;28;123668;-72
2022/10/14 06:06:45;;;;;;;40.45;23.13;;;;;;;17.09;65.77;101184.56;4964816;28;119595;-72
2022/10/14 06:09:14;;;;;;;36.42;22.58;;;;;;;17.08;65.88;101182.84;4947688;28;119096;-72
2022/10/14 06:11:41;;;;;;;33.85;21.38;;;;;;;17.08;65.89;101174.81;4948865;28;124025;-72
2022/10/14 06:14:09;;;;;;;38.55;22.52;;;;;;;17.09;65.91;101173.84;4949986;28;124326;-72
2022/10/14 06:16:36;;;;;;;31.80;22.48;;;;;;;17.09;65.87;101176.53;4951197;28;120139;-72
2022/10/14 06:19:06;;;;;;;31.45;21.92;;;;;;;17.11;65.76;101182.63;4948608;28;118760;-72
2022/10/14 06:21:33;;;;;;;30.05;21.15;;;;;;;17.12;65.90;101178.97;4965966;28;124509;-72
2022/10/14 06:24:00;;;;;;;29.90;21.25;;;;;;;17.12;65.99;101176.31;4966178;28;123801;-72
2022/10/14 06:26:27;;;;;;;34.03;22.35;;;;;;;17.13;66.04;101175.34;4947734;28;118223;-72
2022/10/14 06:28:54;;;;;;;32.70;22.25;;;;;;;17.15;66.00;101167.22;4966534;28;119508;-72
2022/10/14 06:31:21;;;;;;;30.80;22.02;;;;;;;17.16;65.99;101168.94;4971642;28;124180;-72
2022/10/14 06:33:48;;;;;;;32.80;21.38;;;;;;;17.17;66.11;101170.66;4968290;28;123909;-72
2022/10/14 06:36:15;;;;;;;33.05;21.48;;;;;;;17.17;66.23;101171.50;4968862;28;120270;-72
2022/10/14 06:38:42;;;;;;;33.42;21.25;;;;;;;17.19;66.36;101174.94;4966914;28;119829;-72
2022/10/14 06:41:09;;;;;;;29.95;20.67;;;;;;;17.21;66.21;101173.00;4952561;28;122784;-72
2022/10/14 06:43:37;;;;;;;30.85;20.52;;;;;;;17.22;66.13;101169.38;4938760;28;123244;-72
2022/10/14 06:46:04;;;;;;;29.02;19.55;;;;;;;17.24;66.28;101167.47;4975556;28;119479;-72
2022/10/14 06:48:31;;;;;;;24.45;18.58;;;;;;;17.25;66.05;101169.19;4972844;28;119465;-72
2022/10/14 06:50:59;;;;;;;25.90;17.90;;;;;;;17.27;66.08;101169.94;4937743;28;123149;-72
2022/10/14 06:53:27;;;;;;;24.30;18.20;;;;;;;17.27;66.03;101161.03;4968766;28;124736;-72
2022/10/14 06:56:05;;;;;;;22.42;16.95;;;;;;;17.26;66.20;101170.88;4965979;28;119239;-72
2022/10/14 06:58:32;;;;;;;23.52;17.38;;;;;;;17.27;66.11;101164.59;4950212;28;119210;-72
2022/10/14 07:01:02;;;;;;;19.55;15.98;;;;;;;17.29;66.11;101159.97;4967059;28;124171;-72
2022/10/14 07:03:29;;;;;;;21.42;15.43;;;;;;;17.32;66.19;101164.25;4967109;28;124022;-72
2022/10/14 07:05:56;;;;;;;20.30;15.10;;;;;;;17.35;66.39;101157.81;4966909;28;119256;-72
2022/10/14 07:08:23;;;;;;;21.63;15.23;;;;;;;17.37;66.23;101161.28;4968143;28;119292;-72
2022/10/14 07:10:50;;;;;;;19.67;14.48;;;;;;;17.39;66.24;101154.84;4967574;28;123173;-72
2022/10/14 07:13:17;;;;;;;19.77;15.25;;;;;;;17.41;66.18;101152.06;4968130;28;124029;-72
2022/10/14 07:15:48;;;;;;;17.83;14.85;;;;;;;17.42;66.53;101169.84;4967582;28;119288;-72
2022/10/14 07:18:15;;;;;;;18.77;14.50;;;;;;;17.43;66.38;101155.50;4950837;28;119262;-72
2022/10/14 07:20:42;;;;;;;19.20;15.10;;;;;;;17.44;66.16;101157.19;4966860;28;124013;-72
2022/10/14 07:23:09;;;;;;;18.55;14.27;;;;;;;17.45;66.21;101153.56;4967625;28;124658;-72
2022/10/14 07:25:36;;;;;;;17.58;14.45;;;;;;;17.46;66.36;101149.91;4967252;28;119898;-72
2022/10/14 07:28:04;;;;;;;17.80;13.45;;;;;;;17.48;66.46;101153.38;4933364;28;117984;-72
2022/10/14 07:30:31;;;;;;;17.95;13.55;;;;;;;17.51;66.19;101155.81;4949668;28;124198;-72
2022/10/14 07:32:59;;;;;;;15.25;13.05;;;;;;;17.52;66.43;101155.72;4948511;28;124188;-72
2022/10/14 07:35:26;;;;;;;17.23;12.80;;;;;;;17.55;66.42;101157.31;4935136;28;119571;-72
2022/10/14 07:37:54;;;;;;;15.80;12.55;;;;;;;17.57;66.32;101151.84;4968547;28;119088;-72
2022/10/14 07:40:21;;;;;;;15.25;12.30;;;;;;;17.59;66.38;101153.44;4968689;28;123939;-72
2022/10/14 07:42:48;;;;;;;16.33;11.73;;;;;;;17.61;66.49;101154.22;4964782;28;123508;-72
2022/10/14 07:45:17;;;;;;;16.40;11.55;;;;;;;17.63;66.22;101163.00;4949290;28;118492;-72
2022/10/14 07:47:47;;;;;;;12.88;11.07;;;;;;;17.64;66.38;101154.00;4967140;28;119090;-72
2022/10/14 07:50:14;;;;;;;11.63;10.13;;;;;;;17.66;66.30;101152.06;4961370;28;126811;-72
2022/10/14 07:52:42;;;;;;;15.00;9.98;;;;;;;17.68;66.46;101150.13;4966036;28;123931;-72
2022/10/14 07:55:09;;;;;;;12.27;10.35;;;;;;;17.70;66.53;101148.19;4966546;28;120316;-72
2022/10/14 07:57:36;;;;;;;11.98;10.35;;;;;;;17.73;66.54;101146.28;4966666;28;118968;-72
2022/10/14 08:00:03;;;;;;;11.57;9.90;;;;;;;17.76;66.39;101146.06;4947173;28;123808;-72
2022/10/14 08:02:37;;;;;;;10.75;9.57;;;;;;;17.78;66.33;101128.06;4963155;28;125423;-72
2022/10/14 08:05:05;;;;;;;11.82;9.63;;;;;;;17.79;66.35;101135.13;4965279;28;118955;-71
2022/10/14 08:07:52;;;;;;;11.80;9.57;;;;;;;17.83;66.46;101133.94;4963879;28;119036;-72
2022/10/14 08:10:19;;;;;;;12.07;9.35;;;;;;;17.84;66.46;101135.69;4964510;28;123031;-72
2022/10/14 08:12:46;;;;;;;10.73;9.48;;;;;;;17.86;66.72;101136.47;4963832;28;124486;-72
2022/10/14 08:15:13;;;;;;;14.25;9.25;;;;;;;17.88;66.55;101131.84;4964353;28;120027;-72
2022/10/14 08:17:40;;;;;;;10.15;8.65;;;;;;;17.90;66.41;101127.22;4964325;28;120197;-72
2022/10/14 08:20:07;;;;;;;9.60;8.60;;;;;;;17.92;66.59;101130.66;4947074;28;123559;-72
2022/10/14 08:22:34;;;;;;;9.98;8.90;;;;;;;17.94;66.32;101134.06;4947173;28;122665;-72
2022/10/14 08:25:01;;;;;;;9.80;8.80;;;;;;;17.97;66.45;101133.88;4962961;28;119439;-72
2022/10/14 08:27:28;;;;;;;9.15;8.15;;;;;;;17.99;66.32;101131.94;4963535;28;120214;-72
2022/10/14 08:29:55;;;;;;;8.55;7.68;;;;;;;18.00;66.36;101132.78;4963104;28;124266;-72
2022/10/14 08:32:22;;;;;;;11.73;8.43;;;;;;;18.01;66.38;101130.00;4964266;28;123662;-72
2022/10/14 08:34:50;;;;;;;8.63;7.68;;;;;;;18.03;66.21;101128.06;4965683;28;119678;-72
2022/10/14 08:37:17;;;;;;;8.40;7.53;;;;;;;18.05;66.34;101130.63;4963912;28;119111;-72
2022/10/14 08:39:44;;;;;;;10.18;7.95;;;;;;;18.07;66.15;101126.88;4945057;28;124060;-72
2022/10/14 08:42:21;;;;;;;8.93;8.02;;;;;;;18.11;66.28;101113.25;4945998;28;123895;-72
2022/10/14 08:45:10;;;;;;;8.38;7.50;;;;;;;18.13;66.38;101116.69;4945177;28;119189;-73
2022/10/14 08:47:41;;;;;;;9.45;7.22;;;;;;;18.17;66.20;101112.81;4962593;28;117854;-72
2022/10/14 08:50:25;;;;;;;8.07;7.15;;;;;;;18.18;66.23;101109.16;4945408;28;123429;-72
2022/10/14 08:52:59;;;;;;;7.95;7.15;;;;;;;18.22;66.15;101116.00;4944827;28;124815;-72
2022/10/14 08:55:32;;;;;;;9.70;7.82;;;;;;;18.25;66.21;101105.03;4963466;28;119148;-72
2022/10/14 08:58:19;;;;;;;7.43;6.72;;;;;;;18.31;66.30;101118.03;4887688;28;1689386;-72
2022/10/14 09:00:50;;;;;;;8.30;6.82;;;;;;;18.35;66.18;101116.81;4966183;28;123834;-72
2022/10/14 09:03:23;;;;;;;9.55;7.28;;;;;;;18.37;66.17;101120.25;4963508;28;122949;-72
2022/10/14 09:05:56;;;;;;;8.75;7.00;;;;;;;18.40;66.24;101114.66;4942281;28;120905;-72
2022/10/14 09:08:32;;;;;;;8.40;7.13;;;;;;;18.44;66.20;101115.25;4946005;28;118875;-72
2022/10/14 09:11:00;;;;;;;7.70;6.90;;;;;;;18.47;66.03;101110.53;4948043;28;123905;-72
2022/10/14 09:13:34;;;;;;;7.68;6.72;;;;;;;18.49;66.13;101113.97;4965301;28;124610;-72
2022/10/14 09:16:13;;;;;;;8.53;7.50;;;;;;;18.53;66.06;101113.75;4959633;28;119311;-71
2022/10/14 09:18:52;;;;;;;7.95;6.82;;;;;;;18.57;65.93;101109.84;4963929;28;118424;-72
2022/10/14 09:21:26;;;;;;;8.10;6.55;;;;;;;18.60;65.97;101109.63;4965366;28;124074;-72
2022/10/14 09:24:22;;;;;;;8.45;7.00;;;;;;;18.65;65.86;101096.75;4963339;28;124302;-72
2022/10/14 09:27:05;;;;;;;7.65;6.85;;;;;;;18.71;65.94;101090.91;4963338;28;120264;-72
2022/10/14 09:29:39;;;;;;;8.45;6.93;;;;;;;18.76;65.78;101093.22;4964800;28;119157;-71
2022/10/14 09:32:11;;;;;;;7.72;6.78;;;;;;;18.79;65.83;101093.84;4961428;28;124775;-72
2022/10/14 09:34:43;;;;;;;8.10;6.75;;;;;;;18.84;65.91;101091.72;4960582;28;124174;-72
2022/10/14 09:37:34;;;;;;;7.82;7.03;;;;;;;18.89;65.89;101088.66;4963649;28;120339;-72
2022/10/14 09:40:08;;;;;;;8.23;6.95;;;;;;;18.94;65.62;101088.34;4964839;28;119149;-72
2022/10/14 09:43:03;;;;;;;8.25;6.90;;;;;;;18.98;65.64;101097.84;4963232;28;123400;-72
2022/10/14 09:45:46;;;;;;;8.00;6.53;;;;;;;19.01;65.50;101092.25;4944585;28;123498;-71
2022/10/14 09:48:28;;;;;;;9.10;6.85;;;;;;;19.06;65.29;101084.69;4948056;28;119075;-72
2022/10/14 09:50:56;;;;;;;7.13;6.32;;;;;;;19.10;65.34;101080.81;4961438;28;119627;-72
2022/10/14 09:53:29;;;;;;;6.82;6.13;;;;;;;19.14;65.21;101079.59;4963021;28;125180;-72
2022/10/14 09:56:03;;;;;;;8.07;6.60;;;;;;;19.17;65.22;101089.25;4945693;28;123295;-72
2022/10/14 09:58:37;;;;;;;6.25;5.65;;;;;;;19.19;65.01;101080.13;4964238;28;120091;-72
2022/10/14 10:01:05;;;;;;;6.45;5.68;;;;;;;19.21;64.83;101075.47;4965324;28;120436;-72
2022/10/14 10:03:34;;;;;;;7.07;5.78;;;;;;;19.23;64.80;101070.84;4964790;28;123803;-72
2022/10/14 10:06:05;;;;;;;8.23;5.95;;;;;;;19.26;64.80;101073.25;4964901;28;124045;-72
2022/10/14 10:08:36;;;;;;;6.82;5.97;;;;;;;19.27;64.64;101071.47;4967331;28;120246;-72
2022/10/14 10:11:12;;;;;;;8.07;5.97;;;;;;;19.31;64.58;101072.03;4965174;28;118634;-72
2022/10/14 10:13:45;;;;;;;9.35;5.88;;;;;;;19.32;64.43;101073.75;4964017;28;124421;-72
2022/10/14 10:16:30;;;;;;;6.75;5.85;;;;;;;19.33;64.53;101075.50;4963044;28;124812;-72
2022/10/14 10:19:17;;;;;;;6.90;6.20;;;;;;;19.35;64.33;101068.16;4940911;28;118430;-72
2022/10/14 10:21:46;;;;;;;9.15;6.03;;;;;;;19.37;64.54;101076.97;4959950;28;119601;-72
2022/10/14 10:24:22;;;;;;;6.70;5.57;;;;;;;19.38;64.49;101073.28;4965973;28;124414;-72
2022/10/14 10:26:54;;;;;;;7.60;6.00;;;;;;;19.38;64.36;101067.91;4966495;28;123457;-73
2022/10/14 10:29:33;;;;;;;7.30;5.97;;;;;;;19.39;64.38;101064.25;4967701;28;119569;-72
2022/10/14 10:32:15;;;;;;;7.10;6.30;;;;;;;19.39;64.60;101064.25;4940260;28;118417;-72
2022/10/14 10:35:13;;;;;;;7.18;6.00;;;;;;;19.42;64.59;101054.13;4961943;28;123810;-72
2022/10/14 10:37:57;;;;;;;11.38;6.30;;;;;;;19.43;64.65;101054.97;4965947;28;124014;-72
2022/10/14 10:40:37;;;;;;;6.35;5.75;;;;;;;19.45;64.57;101056.56;4949108;28;118783;-72
2022/10/14 10:43:20;;;;;;;7.50;6.28;;;;;;;19.45;64.54;101047.66;4964769;28;118850;-73
2022/10/14 10:46:23;;;;;;;8.90;5.90;;;;;;;19.44;64.53;101040.59;4965376;28;123796;-72
2022/10/14 10:49:04;;;;;;;7.25;5.72;;;;;;;19.46;64.64;101044.00;4945565;28;123806;-72
2022/10/14 10:51:40;;;;;;;7.68;6.35;;;;;;;19.45;64.69;101037.75;4962845;28;120252;-72
2022/10/14 10:54:33;;;;;;;7.25;6.40;;;;;;;19.46;64.58;101033.25;4965371;28;120006;-73
2022/10/14 10:57:11;;;;;;;8.63;6.68;;;;;;;19.45;64.77;101029.69;4950109;28;122908;-72
2022/10/14 10:59:55;;;;;;;7.80;6.13;;;;;;;19.47;64.61;101034.94;4950395;28;123400;-72
2022/10/14 11:02:36;;;;;;;9.40;6.40;;;;;;;19.47;64.56;101034.94;4963735;28;119944;-72
2022/10/14 11:05:26;;;;;;;7.05;6.18;;;;;;;19.47;64.62;101034.94;4962902;28;118931;-72
2022/10/14 11:12:01;;;;;;;7.40;6.50;;;;;;;19.44;64.65;101024.47;4966775;28;124375;-72
2022/10/14 11:14:23;;;;;;;8.18;6.22;;;;;;;19.41;64.60;101022.00;4966920;28;119095;-72
2022/10/14 11:17:07;;;;;;;9.48;6.22;;;;;;;19.39;64.58;101018.59;4941809;28;119181;-72
2022/10/14 11:19:46;;;;;;;7.57;6.03;;;;;;;19.38;64.82;101008.81;4964406;28;124421;-72
2022/10/14 11:22:27;;;;;;;8.50;6.43;;;;;;;19.38;64.90;101008.81;4966315;28;124079;-72
2022/10/14 11:25:06;;;;;;;9.32;6.25;;;;;;;19.40;64.85;101012.22;4950076;28;118305;-71
2022/10/14 11:27:45;;;;;;;12.00;6.95;;;;;;;19.39;64.92;100999.78;4963471;28;118789;-72
2022/10/14 11:30:34;;;;;;;8.98;6.85;;;;;;;19.38;64.96;101004.31;4965569;28;123856;-72
2022/10/14 11:33:53;;;;;;;8.00;6.30;;;;;;;19.40;64.77;101018.47;4949046;28;122728;-72
2022/10/14 11:36:48;;;;;;;7.15;5.72;;;;;;;19.41;64.95;101003.22;4908079;28;119847;-72